ZBTJ/TSN METAR and TAF weather

Enter ICAO airport designator
Station Type Date Time Source
ZBTJ METAR 2024/02/26 16:30 UTC NOAA

ZBTJ 261630Z 19002MPS CAVOK M01/M11 Q1033 NOSIG


Station Type Date Time Source
ZBTJ Decoded METAR 2024/02/26 16:30 UTC NOAA

Tianjin / Zhangguizhu, China (ZBTJ) 39-11N 117-21E
Feb 26, 2024 - 11:30 AM EST / 2024.02.26 1630 UTC
Wind: from the S (190 degrees) at 4 MPH (4 KT):0
Visibility: greater than 7 mile(s):0
Temperature: 30 F (-1 C)
Dew Point: 12 F (-11 C)
Relative Humidity: 46%
Pressure (altimeter): 30.50 in. Hg (1033 hPa)
ob: ZBTJ 261630Z 19002MPS CAVOK M01/M11 Q1033 NOSIG
cycle: 16

Station Type Date Time Source
ZBTJ TAF 2024/02/26 18:03 UTC NOAA